createdAt,value
2019-03-13T00:00:25.030Z,9.10
2019-03-13T00:02:53.555Z,9.10
2019-03-13T00:05:22.153Z,9.10
2019-03-13T00:07:50.566Z,9.20
2019-03-13T00:10:19.656Z,9.20
2019-03-13T00:12:48.055Z,9.30
2019-03-13T00:15:16.731Z,9.30
2019-03-13T00:17:45.104Z,9.40
2019-03-13T00:20:13.732Z,9.40
2019-03-13T00:22:42.189Z,9.40
2019-03-13T00:25:10.804Z,9.40
2019-03-13T00:27:39.430Z,9.50
2019-03-13T00:30:09.803Z,9.50
2019-03-13T00:32:38.206Z,9.50
2019-03-13T00:35:08.717Z,9.50
2019-03-13T00:37:37.352Z,9.50
2019-03-13T00:40:10.896Z,9.60
2019-03-13T00:42:39.711Z,9.60
2019-03-13T00:45:10.100Z,9.60
2019-03-13T00:47:38.639Z,9.60
2019-03-13T00:50:09.380Z,9.70
2019-03-13T00:52:37.858Z,9.70
2019-03-13T00:55:06.957Z,9.70
2019-03-13T00:57:35.538Z,9.70
2019-03-13T01:00:06.658Z,9.70
2019-03-13T01:02:36.838Z,9.80
2019-03-13T01:05:08.210Z,9.80
2019-03-13T01:07:36.773Z,9.80
2019-03-13T01:10:09.361Z,9.80
2019-03-13T01:12:37.840Z,9.80
2019-03-13T01:15:08.680Z,9.80
2019-03-13T01:17:39.493Z,9.80
2019-03-13T01:20:08.832Z,9.80
2019-03-13T01:22:37.407Z,9.80
2019-03-13T01:25:08.149Z,9.80
2019-03-13T01:27:36.609Z,9.80
2019-03-13T01:30:08.571Z,9.80
2019-03-13T01:32:50.458Z,9.80
2019-03-13T01:35:23.357Z,9.80
2019-03-13T01:37:51.754Z,9.70
2019-03-13T01:40:20.194Z,9.60
2019-03-13T01:42:48.616Z,9.60
2019-03-13T01:45:17.098Z,9.60
2019-03-13T01:47:45.663Z,9.60
2019-03-13T01:50:14.113Z,9.60
2019-03-13T01:52:42.575Z,9.40
2019-03-13T01:55:11.109Z,9.20
2019-03-13T01:57:39.672Z,9.00
2019-03-13T02:00:11.295Z,9.00
2019-03-13T02:02:39.700Z,8.90
2019-03-13T02:05:08.180Z,8.80
2019-03-13T02:07:36.601Z,8.80
2019-03-13T02:10:07.904Z,8.80
2019-03-13T02:12:36.450Z,8.90
2019-03-13T02:15:08.274Z,8.80
2019-03-13T02:17:39.435Z,8.60
2019-03-13T02:20:09.531Z,8.50
2019-03-13T02:22:37.917Z,8.40
2019-03-13T02:25:10.867Z,8.20
2019-03-13T02:27:39.237Z,8.20
2019-03-13T02:30:20.031Z,8.30
2019-03-13T02:32:48.517Z,8.30
2019-03-13T02:35:17.007Z,8.40
2019-03-13T02:37:46.830Z,8.30
2019-03-13T02:40:15.907Z,8.30
2019-03-13T02:42:44.483Z,8.30
2019-03-13T02:45:14.282Z,8.00
2019-03-13T02:47:44.434Z,7.90
2019-03-13T02:50:15.633Z,7.90
2019-03-13T02:52:44.322Z,7.90
2019-03-13T02:55:12.755Z,7.80
2019-03-13T02:57:41.272Z,7.80
2019-03-13T03:00:16.730Z,7.80
2019-03-13T03:02:52.838Z,7.80
2019-03-13T03:05:21.290Z,7.90
2019-03-13T03:07:49.705Z,7.90
2019-03-13T03:10:18.095Z,7.90
2019-03-13T03:12:46.511Z,7.90
2019-03-13T03:15:18.744Z,7.90
2019-03-13T03:17:47.120Z,8.00
2019-03-13T03:20:19.782Z,8.00
2019-03-13T03:22:48.157Z,8.00
2019-03-13T03:25:17.748Z,8.00
2019-03-13T03:27:46.183Z,8.00
2019-03-13T03:30:17.657Z,8.00
2019-03-13T03:32:46.156Z,8.00
2019-03-13T03:35:14.965Z,8.00
2019-03-13T03:37:43.644Z,8.00
2019-03-13T03:40:21.726Z,8.00
2019-03-13T03:42:47.148Z,8.00
2019-03-13T03:45:15.478Z,7.90
2019-03-13T03:47:43.954Z,7.90
2019-03-13T03:50:18.552Z,7.90
2019-03-13T03:52:46.951Z,7.80
2019-03-13T03:55:16.097Z,7.70
2019-03-13T03:57:44.546Z,7.70
2019-03-13T04:00:14.413Z,7.70
2019-03-13T04:02:42.827Z,7.70
2019-03-13T04:05:11.250Z,7.70
2019-03-13T04:07:39.813Z,7.60
2019-03-13T04:10:12.598Z,7.60
2019-03-13T04:12:40.973Z,7.50
2019-03-13T04:15:11.276Z,7.50
2019-03-13T04:17:42.951Z,7.50
2019-03-13T04:20:17.702Z,7.50
2019-03-13T04:22:46.773Z,7.40
2019-03-13T04:25:26.951Z,7.40
2019-03-13T04:27:55.376Z,7.40
2019-03-13T04:30:23.817Z,7.30
2019-03-13T04:32:52.214Z,7.30
2019-03-13T04:35:20.691Z,7.30
2019-03-13T04:37:49.125Z,7.40
2019-03-13T04:40:17.517Z,7.40
2019-03-13T04:42:45.983Z,7.30
2019-03-13T04:45:14.413Z,7.30
2019-03-13T04:47:42.783Z,7.20
2019-03-13T04:50:14.951Z,7.30
2019-03-13T04:52:43.622Z,7.20
2019-03-13T04:55:14.370Z,7.20
2019-03-13T04:57:42.767Z,7.20
2019-03-13T05:00:14.471Z,7.10
2019-03-13T05:02:42.889Z,7.20
2019-03-13T05:05:37.542Z,7.20
2019-03-13T05:08:06.043Z,7.10
2019-03-13T05:10:34.503Z,7.10
2019-03-13T05:13:03.029Z,7.10
2019-03-13T05:15:31.656Z,7.20
2019-03-13T05:18:01.335Z,7.10
2019-03-13T05:20:29.680Z,7.10
2019-03-13T05:22:58.084Z,7.20
2019-03-13T05:25:26.537Z,7.20
2019-03-13T05:27:54.946Z,7.20
2019-03-13T05:30:23.364Z,7.20
2019-03-13T05:32:51.871Z,7.10
2019-03-13T05:35:20.308Z,7.10
2019-03-13T05:37:48.739Z,7.10
2019-03-13T05:40:17.118Z,7.10
2019-03-13T05:42:45.530Z,7.10
2019-03-13T05:45:14.004Z,7.10
2019-03-13T05:47:47.161Z,7.10
2019-03-13T05:50:15.607Z,7.00
2019-03-13T05:52:44.082Z,7.10
2019-03-13T05:55:12.557Z,7.00
2019-03-13T05:57:41.046Z,7.00
2019-03-13T06:00:12.835Z,6.90
2019-03-13T06:02:41.219Z,6.90
2019-03-13T06:05:09.669Z,6.90
2019-03-13T06:07:38.069Z,6.90
2019-03-13T06:10:11.818Z,6.80
2019-03-13T06:12:40.321Z,6.80
2019-03-13T06:15:13.458Z,6.70
2019-03-13T06:17:41.989Z,6.70
2019-03-13T06:20:15.505Z,6.80
2019-03-13T06:22:44.064Z,6.80
2019-03-13T06:25:14.316Z,6.80
2019-03-13T06:27:42.036Z,6.90
2019-03-13T06:30:15.449Z,6.90
2019-03-13T06:32:43.843Z,6.90
2019-03-13T06:35:12.453Z,6.90
2019-03-13T06:37:40.972Z,7.00
2019-03-13T06:40:17.941Z,7.00
2019-03-13T06:42:48.197Z,7.00
2019-03-13T06:45:16.136Z,7.10
2019-03-13T06:47:44.689Z,7.20
2019-03-13T06:50:18.693Z,7.10
2019-03-13T06:52:47.323Z,7.10
2019-03-13T06:55:15.868Z,7.20
2019-03-13T06:57:44.454Z,7.20
2019-03-13T07:00:25.331Z,7.20
2019-03-13T07:02:58.453Z,7.40
2019-03-13T07:05:28.604Z,7.40
2019-03-13T07:08:01.183Z,7.60
2019-03-13T07:10:33.972Z,7.60
2019-03-13T07:13:13.166Z,7.60
2019-03-13T07:15:46.071Z,7.50
2019-03-13T07:18:16.194Z,7.40
2019-03-13T07:20:49.046Z,7.40
2019-03-13T07:23:31.538Z,7.40
2019-03-13T07:26:07.412Z,7.40
2019-03-13T07:28:40.242Z,7.40
2019-03-13T07:31:22.797Z,7.40
2019-03-13T07:33:53.015Z,7.50
2019-03-13T07:36:35.436Z,7.60
2019-03-13T07:39:21.735Z,7.70
2019-03-13T07:42:01.106Z,7.70
2019-03-13T07:44:46.278Z,7.80
2019-03-13T07:47:21.929Z,7.80
2019-03-13T07:50:06.941Z,7.80
2019-03-13T07:52:52.168Z,7.80
2019-03-13T07:55:22.192Z,7.80
2019-03-13T07:58:04.699Z,7.80
2019-03-13T08:00:34.831Z,7.90
2019-03-13T08:03:10.596Z,8.00
2019-03-13T08:05:40.734Z,8.00
2019-03-13T08:08:19.969Z,8.00
2019-03-13T08:11:05.323Z,8.10
2019-03-13T08:13:42.563Z,8.10
2019-03-13T08:16:30.674Z,8.10
2019-03-13T08:19:17.189Z,8.10
2019-03-13T08:22:05.194Z,8.10
2019-03-13T08:24:51.334Z,8.10
2019-03-13T08:27:37.563Z,8.10
2019-03-13T08:30:14.054Z,8.20
2019-03-13T08:32:46.765Z,8.30
2019-03-13T08:35:25.750Z,8.40
2019-03-13T08:38:01.889Z,8.50
2019-03-13T08:40:41.124Z,8.50
2019-03-13T08:43:13.959Z,8.50
2019-03-13T08:46:00.616Z,8.60
2019-03-13T08:48:30.669Z,8.60
2019-03-13T08:51:09.207Z,8.60
2019-03-13T08:53:39.283Z,8.70
2019-03-13T08:56:21.402Z,8.70
2019-03-13T08:58:57.105Z,8.70
2019-03-13T09:01:27.193Z,8.70
2019-03-13T09:04:09.550Z,8.80
2019-03-13T09:06:42.278Z,8.90
2019-03-13T09:09:21.360Z,8.90
2019-03-13T09:11:51.402Z,8.90
2019-03-13T09:14:24.144Z,8.90
2019-03-13T09:16:54.136Z,8.90
2019-03-13T09:19:24.216Z,9.00
2019-03-13T09:22:10.905Z,9.00
2019-03-13T09:24:43.780Z,8.90
2019-03-13T09:27:30.113Z,9.00
2019-03-13T09:30:16.389Z,9.20
2019-03-13T09:33:01.926Z,9.40
2019-03-13T09:35:37.921Z,9.50
2019-03-13T09:38:07.969Z,9.40
2019-03-13T09:40:56.313Z,9.40
2019-03-13T09:43:26.369Z,9.40
2019-03-13T09:46:08.577Z,9.50
2019-03-13T09:48:47.583Z,9.60
2019-03-13T09:51:26.542Z,9.60
2019-03-13T09:54:02.732Z,9.60
2019-03-13T09:56:35.431Z,9.50
2019-03-13T09:59:08.179Z,9.60
2019-03-13T10:01:43.995Z,9.60
2019-03-13T10:04:32.355Z,9.60
2019-03-13T10:07:04.973Z,9.70
2019-03-13T10:09:37.546Z,9.80
2019-03-13T10:12:10.068Z,10.00
2019-03-13T10:14:45.797Z,10.00
2019-03-13T10:17:33.918Z,10.00
2019-03-13T10:20:12.863Z,9.90
2019-03-13T10:22:42.935Z,9.90
2019-03-13T10:25:15.691Z,9.90
2019-03-13T10:27:48.225Z,9.90
2019-03-13T10:30:23.942Z,9.90
2019-03-13T10:33:02.790Z,10.00
2019-03-13T10:35:48.961Z,9.90
2019-03-13T10:38:19.021Z,10.10
2019-03-13T10:40:55.293Z,10.20
2019-03-13T10:43:41.814Z,10.20
2019-03-13T10:46:20.497Z,10.20
2019-03-13T10:49:06.785Z,10.20
2019-03-13T10:51:53.092Z,10.30
2019-03-13T10:54:38.506Z,10.50
2019-03-13T10:57:14.404Z,10.60
2019-03-13T10:59:50.038Z,10.70
2019-03-13T11:02:22.667Z,10.70
2019-03-13T11:04:55.579Z,10.80
2019-03-13T11:07:34.917Z,10.70
2019-03-13T11:10:07.120Z,10.80
2019-03-13T11:12:52.398Z,10.70
2019-03-13T11:15:28.285Z,10.90
2019-03-13T11:18:10.511Z,11.00
2019-03-13T11:20:52.719Z,11.00
2019-03-13T11:23:28.487Z,11.10
2019-03-13T11:25:58.517Z,11.20
2019-03-13T11:28:28.549Z,11.20
2019-03-13T11:30:58.546Z,11.30
2019-03-13T11:33:43.913Z,11.20
2019-03-13T11:36:30.639Z,11.10
2019-03-13T11:39:15.810Z,11.10
2019-03-13T11:41:45.790Z,11.20
2019-03-13T11:44:15.868Z,11.20
2019-03-13T11:46:49.017Z,11.20
2019-03-13T11:49:25.174Z,11.30
2019-03-13T11:51:57.952Z,11.30
2019-03-13T11:54:30.894Z,11.30
2019-03-13T11:57:00.955Z,11.30
2019-03-13T11:59:37.196Z,11.10
2019-03-13T12:02:19.399Z,11.00
2019-03-13T12:04:55.120Z,11.00
2019-03-13T12:07:27.930Z,11.00
2019-03-13T12:09:57.928Z,10.90
2019-03-13T12:12:46.407Z,10.80
2019-03-13T12:15:19.185Z,10.80
2019-03-13T12:17:49.262Z,10.80
2019-03-13T12:20:28.335Z,10.90
2019-03-13T12:23:04.129Z,11.00
2019-03-13T12:25:46.121Z,10.90
2019-03-13T12:28:18.860Z,10.80
2019-03-13T12:30:51.948Z,10.80
2019-03-13T12:33:28.058Z,10.70
2019-03-13T12:36:04.338Z,10.70
2019-03-13T12:38:37.437Z,10.60
2019-03-13T12:41:10.273Z,10.60
2019-03-13T12:43:51.371Z,10.60
2019-03-13T12:46:37.850Z,10.50
2019-03-13T12:49:08.060Z,10.50
2019-03-13T12:51:50.241Z,10.60
2019-03-13T12:54:36.337Z,10.60
2019-03-13T12:57:15.551Z,10.60
2019-03-13T12:59:45.551Z,10.60
2019-03-13T13:02:18.289Z,10.50
2019-03-13T13:05:04.782Z,10.60
2019-03-13T13:07:39.135Z,10.60
2019-03-13T13:10:09.117Z,10.50
2019-03-13T13:12:48.242Z,10.60
2019-03-13T13:15:18.284Z,10.60
2019-03-13T13:17:57.575Z,10.70
2019-03-13T13:20:25.949Z,10.70
2019-03-13T13:22:54.375Z,10.70
2019-03-13T13:25:24.632Z,10.70
2019-03-13T13:27:52.967Z,10.80
2019-03-13T13:30:21.302Z,10.80
2019-03-13T13:32:49.779Z,11.00
2019-03-13T13:35:18.111Z,11.20
2019-03-13T13:37:46.684Z,11.30
2019-03-13T13:40:16.580Z,11.50
2019-03-13T13:42:45.007Z,11.60
2019-03-13T13:45:33.288Z,11.60
2019-03-13T13:48:01.922Z,11.60
2019-03-13T13:50:30.244Z,11.50
2019-03-13T13:52:58.726Z,11.60
2019-03-13T13:55:27.193Z,11.60
2019-03-13T13:57:55.610Z,11.50
2019-03-13T14:00:24.109Z,11.50
2019-03-13T14:02:52.507Z,11.50
2019-03-13T14:05:21.109Z,11.50
2019-03-13T14:07:49.509Z,11.40
2019-03-13T14:10:17.988Z,11.40
2019-03-13T14:12:46.558Z,11.40
2019-03-13T14:15:15.544Z,11.40
2019-03-13T14:17:43.906Z,11.30
2019-03-13T14:20:15.952Z,11.30
2019-03-13T14:22:44.589Z,11.20
2019-03-13T14:25:15.989Z,11.10
2019-03-13T14:27:44.376Z,11.10
2019-03-13T14:30:22.615Z,11.10
2019-03-13T14:32:50.985Z,11.10
2019-03-13T14:35:19.434Z,11.10
2019-03-13T14:37:47.858Z,11.10
2019-03-13T14:40:17.956Z,11.10
2019-03-13T14:42:46.372Z,11.10
2019-03-13T14:45:18.025Z,11.00
2019-03-13T14:47:46.513Z,11.10
2019-03-13T14:50:17.484Z,11.10
2019-03-13T14:52:45.885Z,11.00
2019-03-13T14:55:15.544Z,11.00
2019-03-13T14:57:43.972Z,11.10
2019-03-13T15:00:26.553Z,11.10
2019-03-13T15:02:54.958Z,11.10
2019-03-13T15:05:23.390Z,11.10
2019-03-13T15:07:51.828Z,11.10
2019-03-13T15:10:21.218Z,11.10
2019-03-13T15:12:55.552Z,11.00
2019-03-13T15:15:24.305Z,11.00
2019-03-13T15:17:53.556Z,11.00
2019-03-13T15:20:29.172Z,11.00
2019-03-13T15:22:57.553Z,11.00
2019-03-13T15:25:25.999Z,10.90
2019-03-13T15:27:54.411Z,10.90
2019-03-13T15:30:24.294Z,10.90
2019-03-13T15:32:52.646Z,10.90
2019-03-13T15:35:20.972Z,10.90
2019-03-13T15:38:08.766Z,10.90
2019-03-13T15:40:37.199Z,10.80
2019-03-13T15:43:05.659Z,10.80
2019-03-13T15:45:34.949Z,10.80
2019-03-13T15:48:03.459Z,10.90
2019-03-13T15:50:32.453Z,10.90
2019-03-13T15:53:00.858Z,10.90
2019-03-13T15:55:29.257Z,10.90
2019-03-13T15:57:57.607Z,10.90
2019-03-13T16:00:30.044Z,10.90
2019-03-13T16:02:58.435Z,10.90
2019-03-13T16:05:27.035Z,10.90
2019-03-13T16:07:55.319Z,10.90
2019-03-13T16:10:23.697Z,10.90
2019-03-13T16:12:53.843Z,10.90
2019-03-13T16:15:26.097Z,10.80
2019-03-13T16:17:54.491Z,10.80
2019-03-13T16:20:22.896Z,10.80
2019-03-13T16:22:52.982Z,10.70
2019-03-13T16:25:21.358Z,10.70
2019-03-13T16:27:49.721Z,10.70
2019-03-13T16:30:24.706Z,10.80
2019-03-13T16:32:53.008Z,10.80
2019-03-13T16:35:21.440Z,10.70
2019-03-13T16:37:49.884Z,10.70
2019-03-13T16:40:21.401Z,10.70
2019-03-13T16:42:49.872Z,10.80
2019-03-13T16:45:21.951Z,10.80
2019-03-13T16:47:50.411Z,10.70
2019-03-13T16:50:29.945Z,10.70
2019-03-13T16:52:58.439Z,10.70
2019-03-13T16:55:26.895Z,10.60
2019-03-13T16:57:55.315Z,10.60
2019-03-13T17:00:25.953Z,10.60
2019-03-13T17:02:54.653Z,10.60
2019-03-13T17:05:23.221Z,10.60
2019-03-13T17:07:51.699Z,10.50
2019-03-13T17:10:22.436Z,10.50
2019-03-13T17:12:50.929Z,10.50
2019-03-13T17:15:21.909Z,10.50
2019-03-13T17:17:50.355Z,10.50
2019-03-13T17:20:21.388Z,10.50
2019-03-13T17:22:49.777Z,10.40
2019-03-13T17:25:19.753Z,10.40
2019-03-13T17:27:48.615Z,10.40
2019-03-13T17:30:22.554Z,10.30
2019-03-13T17:32:50.982Z,10.30
2019-03-13T17:35:19.519Z,10.20
2019-03-13T17:37:48.537Z,10.20
2019-03-13T17:40:29.416Z,10.20
2019-03-13T17:42:57.898Z,10.10
2019-03-13T17:45:26.267Z,10.20
2019-03-13T17:47:55.064Z,10.10
2019-03-13T17:50:24.255Z,10.10
2019-03-13T17:52:52.632Z,10.10
2019-03-13T17:55:24.518Z,10.20
2019-03-13T17:57:52.992Z,10.20
2019-03-13T18:00:37.468Z,10.10
2019-03-13T18:03:06.046Z,10.00
2019-03-13T18:05:34.494Z,10.10
2019-03-13T18:08:03.530Z,10.10
2019-03-13T18:10:32.002Z,10.10
2019-03-13T18:13:00.537Z,10.00
2019-03-13T18:15:28.883Z,10.00
2019-03-13T18:17:57.334Z,10.00
2019-03-13T18:20:25.748Z,10.00
2019-03-13T18:22:54.062Z,10.00
2019-03-13T18:25:22.458Z,10.00
2019-03-13T18:27:50.886Z,9.90
2019-03-13T18:30:29.497Z,9.90
2019-03-13T18:32:57.981Z,9.90
2019-03-13T18:35:26.371Z,9.90
2019-03-13T18:37:54.757Z,9.90
2019-03-13T18:40:23.993Z,10.00
2019-03-13T18:42:52.325Z,10.00
2019-03-13T18:45:31.099Z,10.00
2019-03-13T18:47:59.858Z,10.00
2019-03-13T18:50:28.319Z,10.00
2019-03-13T18:52:56.729Z,9.90
2019-03-13T18:55:29.412Z,10.00
2019-03-13T18:57:57.903Z,9.90
2019-03-13T19:00:28.735Z,9.80
2019-03-13T19:02:57.421Z,9.60
2019-03-13T19:05:26.172Z,9.50
2019-03-13T19:07:54.648Z,8.90
2019-03-13T19:10:27.385Z,8.60
2019-03-13T19:12:55.833Z,8.30
2019-03-13T19:15:24.862Z,8.20
2019-03-13T19:17:53.544Z,8.20
2019-03-13T19:20:26.219Z,8.20
2019-03-13T19:22:54.538Z,8.20
2019-03-13T19:25:22.916Z,8.30
2019-03-13T19:27:51.314Z,8.50
2019-03-13T19:30:22.092Z,8.60
2019-03-13T19:32:50.581Z,8.70
2019-03-13T19:35:18.957Z,8.70
2019-03-13T19:37:47.396Z,8.70
2019-03-13T19:40:22.746Z,8.80
2019-03-13T19:42:51.157Z,8.90
2019-03-13T19:45:29.001Z,8.90
2019-03-13T19:47:57.302Z,9.00
2019-03-13T19:50:28.364Z,9.00
2019-03-13T19:52:56.914Z,9.00
2019-03-13T19:55:25.266Z,9.00
2019-03-13T19:57:53.669Z,9.00
2019-03-13T20:00:25.148Z,9.10
2019-03-13T20:03:00.287Z,9.00
2019-03-13T20:05:26.009Z,9.10
2019-03-13T20:07:54.398Z,9.10
2019-03-13T20:10:28.009Z,9.10
2019-03-13T20:12:56.566Z,9.00
2019-03-13T20:15:29.862Z,9.00
2019-03-13T20:17:58.154Z,9.00
2019-03-13T20:20:26.788Z,9.10
2019-03-13T20:22:58.165Z,9.20
2019-03-13T20:25:26.546Z,9.30
2019-03-13T20:27:55.186Z,9.30
2019-03-13T20:30:24.256Z,9.20
2019-03-13T20:32:52.656Z,9.20
2019-03-13T20:35:24.029Z,9.20
2019-03-13T20:37:52.431Z,9.10
2019-03-13T20:40:22.138Z,9.10
2019-03-13T20:42:50.579Z,9.10
2019-03-13T20:45:21.903Z,9.20
2019-03-13T20:47:50.249Z,9.10
2019-03-13T20:50:18.645Z,9.10
2019-03-13T20:52:47.019Z,9.10
2019-03-13T20:55:17.050Z,9.10
2019-03-13T20:57:45.509Z,9.10
2019-03-13T21:00:22.586Z,9.10
2019-03-13T21:02:51.611Z,9.00
2019-03-13T21:05:19.949Z,9.00
2019-03-13T21:07:50.158Z,8.90
2019-03-13T21:10:18.720Z,8.90
2019-03-13T21:12:47.444Z,8.80
2019-03-13T21:15:23.838Z,8.90
2019-03-13T21:17:52.240Z,8.90
2019-03-13T21:20:20.879Z,8.80
2019-03-13T21:22:49.352Z,8.80
2019-03-13T21:25:20.236Z,8.80
2019-03-13T21:27:48.711Z,8.80
2019-03-13T21:30:25.231Z,8.80
2019-03-13T21:32:53.622Z,8.90
2019-03-13T21:35:22.265Z,8.90
2019-03-13T21:37:50.678Z,8.90
2019-03-13T21:40:28.448Z,8.90
2019-03-13T21:42:56.824Z,8.80
2019-03-13T21:45:25.330Z,8.80
2019-03-13T21:47:53.861Z,8.90
2019-03-13T21:50:22.622Z,8.70
2019-03-13T21:52:50.974Z,8.70
2019-03-13T21:55:19.532Z,8.50
2019-03-13T21:57:51.355Z,8.50
2019-03-13T22:00:19.698Z,8.30
2019-03-13T22:02:48.123Z,8.10
2019-03-13T22:05:25.552Z,8.00
2019-03-13T22:07:46.724Z,8.00
2019-03-13T22:10:18.718Z,8.00
2019-03-13T22:12:47.219Z,7.90
2019-03-13T22:15:21.644Z,7.90
2019-03-13T22:17:50.047Z,7.90
2019-03-13T22:20:19.232Z,8.00
2019-03-13T22:22:47.605Z,7.90
2019-03-13T22:25:17.080Z,7.90
2019-03-13T22:27:45.502Z,7.90
2019-03-13T22:30:23.620Z,7.80
2019-03-13T22:32:52.262Z,7.80
2019-03-13T22:35:20.820Z,7.80
2019-03-13T22:37:49.222Z,7.90
2019-03-13T22:40:18.269Z,7.90
2019-03-13T22:42:46.794Z,7.90
2019-03-13T22:45:20.338Z,7.90
2019-03-13T22:47:48.713Z,7.80
2019-03-13T22:50:24.330Z,7.80
2019-03-13T22:52:52.711Z,7.80
2019-03-13T22:55:21.226Z,7.70
2019-03-13T22:57:49.563Z,7.60
2019-03-13T23:00:52.569Z,7.60
2019-03-13T23:03:23.152Z,7.60
2019-03-13T23:05:51.689Z,7.60
2019-03-13T23:08:20.236Z,7.50
2019-03-13T23:10:48.735Z,7.60
2019-03-13T23:13:17.569Z,7.70
2019-03-13T23:15:46.613Z,7.60
2019-03-13T23:18:17.047Z,7.60
2019-03-13T23:20:44.978Z,7.70
2019-03-13T23:23:13.431Z,7.70
2019-03-13T23:25:41.956Z,7.80
2019-03-13T23:28:10.495Z,7.80
2019-03-13T23:30:39.168Z,7.70
2019-03-13T23:33:07.556Z,7.60
2019-03-13T23:35:36.028Z,7.60
2019-03-13T23:38:06.006Z,7.60
2019-03-13T23:40:34.570Z,7.70
2019-03-13T23:43:03.079Z,7.70
2019-03-13T23:45:33.218Z,7.70
2019-03-13T23:48:01.751Z,7.70
2019-03-13T23:50:30.184Z,7.80
2019-03-13T23:52:58.672Z,7.80
2019-03-13T23:55:27.301Z,7.70
2019-03-13T23:57:55.699Z,7.80
